Time;durP1;ratioP1;P1;durP2;ratioP2;P2;SDS_P1;SDS_P2;PMS_P1;PMS_P2;Temp;Humidity;BMP_temperature;BMP_pressure;BME280_temperature;BME280_humidity;BME280_pressure;Samples;Min_cycle;Max_cycle;Signal;HPM_P1;HPM_P2
2024/02/01 00:02:00;;;;;;;46.60;24.60;;;;;;;;;;779838;178;916612;-66
2024/02/01 00:04:26;;;;;;;65.37;31.17;;;;;;;;;;779733;178;938671;-65
2024/02/01 00:06:52;;;;;;;58.87;34.33;;;;;;;;;;777428;180;930108;-69
2024/02/01 00:09:18;;;;;;;62.57;33.60;;;;;;;;;;779843;177;919656;-64
2024/02/01 00:11:44;;;;;;;63.97;35.10;;;;;;;;;;777284;177;918545;-64
2024/02/01 00:14:10;;;;;;;60.90;34.30;;;;;;;;;;783160;178;920443;-66
2024/02/01 00:16:35;;;;;;;56.37;35.43;;;;;;;;;;778066;177;907042;-65
2024/02/01 00:19:01;;;;;;;55.33;29.40;;;;;;;;;;778612;178;918880;-68
2024/02/01 00:21:27;;;;;;;64.80;33.67;;;;;;;;;;783413;178;915775;-67
2024/02/01 00:23:53;;;;;;;54.57;31.73;;;;;;;;;;775483;177;923913;-64
2024/02/01 00:26:20;;;;;;;52.20;30.00;;;;;;;;;;777224;178;917423;-66
2024/02/01 00:28:45;;;;;;;62.57;32.80;;;;;;;;;;783733;178;914620;-66
2024/02/01 00:31:11;;;;;;;53.30;31.20;;;;;;;;;;777117;177;917154;-66
2024/02/01 00:33:37;;;;;;;56.50;32.00;;;;;;;;;;778755;177;916172;-69
2024/02/01 00:36:02;;;;;;;51.80;29.23;;;;;;;;;;774755;178;924988;-64
2024/02/01 00:38:28;;;;;;;60.27;31.53;;;;;;;;;;783356;176;816720;-68
2024/02/01 00:40:54;;;;;;;55.80;29.93;;;;;;;;;;778461;177;1016810;-66
2024/02/01 00:43:20;;;;;;;56.88;33.25;;;;;;;;;;781957;176;918641;-67
2024/02/01 00:45:46;;;;;;;59.67;32.50;;;;;;;;;;785181;177;896225;-67
2024/02/01 00:48:12;;;;;;;59.63;35.03;;;;;;;;;;782732;177;919040;-67
2024/02/01 00:50:38;;;;;;;53.63;32.07;;;;;;;;;;779957;177;920343;-64
2024/02/01 00:53:03;;;;;;;61.80;33.80;;;;;;;;;;785814;178;918371;-65
2024/02/01 00:55:29;;;;;;;64.23;34.53;;;;;;;;;;782526;177;937842;-67
2024/02/01 00:57:55;;;;;;;55.87;32.53;;;;;;;;;;779612;177;817379;-65
2024/02/01 01:00:21;;;;;;;61.67;33.35;;;;;;;;;;778009;178;918886;-67
2024/02/01 01:02:47;;;;;;;52.67;33.00;;;;;;;;;;787379;176;918284;-64
2024/02/01 01:05:13;;;;;;;57.47;33.17;;;;;;;;;;778810;177;918843;-64
2024/02/01 01:07:38;;;;;;;61.13;31.43;;;;;;;;;;780229;177;919932;-64
2024/02/01 01:10:05;;;;;;;66.23;34.20;;;;;;;;;;786591;177;920641;-64
2024/02/01 01:12:31;;;;;;;65.83;35.67;;;;;;;;;;780335;177;926790;-65
2024/02/01 01:14:56;;;;;;;53.47;29.87;;;;;;;;;;780559;178;919161;-66
2024/02/01 01:17:22;;;;;;;55.80;30.60;;;;;;;;;;783270;178;932229;-66
2024/02/01 01:19:50;;;;;;;73.10;37.03;;;;;;;;;;778383;178;911181;-64
2024/02/01 01:22:14;;;;;;;53.17;29.93;;;;;;;;;;780567;177;911010;-64
2024/02/01 01:24:40;;;;;;;66.03;34.97;;;;;;;;;;784473;178;812041;-71
2024/02/01 01:27:06;;;;;;;59.63;34.30;;;;;;;;;;776990;178;920176;-66
2024/02/01 01:29:31;;;;;;;58.47;32.90;;;;;;;;;;775234;178;917407;-65
2024/02/01 01:31:57;;;;;;;50.53;32.30;;;;;;;;;;777411;178;921766;-67
2024/02/01 01:34:23;;;;;;;59.93;34.00;;;;;;;;;;782871;178;919111;-67
2024/02/01 01:36:49;;;;;;;62.37;34.57;;;;;;;;;;777423;178;918201;-68
2024/02/01 01:39:15;;;;;;;62.20;33.43;;;;;;;;;;779384;178;912438;-67
2024/02/01 01:41:43;;;;;;;57.62;30.55;;;;;;;;;;782774;177;815437;-64
2024/02/01 01:44:09;;;;;;;53.53;31.43;;;;;;;;;;778830;177;919355;-65
2024/02/01 01:46:34;;;;;;;61.67;33.40;;;;;;;;;;777508;177;916098;-65
2024/02/01 01:49:00;;;;;;;59.50;31.27;;;;;;;;;;783125;177;818301;-65
2024/02/01 01:51:26;;;;;;;60.17;33.37;;;;;;;;;;777315;178;919481;-67
2024/02/01 01:53:52;;;;;;;60.90;31.07;;;;;;;;;;779241;177;918377;-64
2024/02/01 01:56:18;;;;;;;55.93;31.43;;;;;;;;;;779469;177;913005;-69
2024/02/01 01:58:44;;;;;;;53.75;29.65;;;;;;;;;;789987;177;919515;-67
2024/02/01 02:01:09;;;;;;;58.00;32.30;;;;;;;;;;787630;175;1020307;-65
2024/02/01 02:03:36;;;;;;;59.13;32.87;;;;;;;;;;782443;177;918415;-64
2024/02/01 02:06:02;;;;;;;57.57;28.90;;;;;;;;;;785290;177;816146;-65
2024/02/01 02:08:28;;;;;;;49.33;29.07;;;;;;;;;;779254;177;920373;-67
2024/02/01 02:10:53;;;;;;;55.88;29.75;;;;;;;;;;782655;178;918765;-67
2024/02/01 02:13:20;;;;;;;52.17;29.97;;;;;;;;;;784288;178;817387;-65
2024/02/01 02:15:45;;;;;;;48.60;25.50;;;;;;;;;;780842;178;819095;-67
2024/02/01 02:18:11;;;;;;;45.10;28.60;;;;;;;;;;779551;178;918947;-65
2024/02/01 02:20:39;;;;;;;60.30;31.77;;;;;;;;;;779485;178;956477;-67
2024/02/01 02:23:05;;;;;;;53.83;29.83;;;;;;;;;;789134;174;871459;-65
2024/02/01 02:25:30;;;;;;;55.43;30.47;;;;;;;;;;780258;176;848550;-64
2024/02/01 02:27:56;;;;;;;49.70;28.37;;;;;;;;;;778447;178;1017355;-65
2024/02/01 02:30:22;;;;;;;48.03;27.58;;;;;;;;;;784027;177;919656;-67
2024/02/01 02:32:48;;;;;;;60.83;29.40;;;;;;;;;;780600;178;916777;-67
2024/02/01 02:35:14;;;;;;;52.90;29.30;;;;;;;;;;777234;178;921157;-65
2024/02/01 02:37:44;;;;;;;57.00;30.87;;;;;;;;;;785267;178;818090;-68
2024/02/01 02:40:11;;;;;;;52.07;27.60;;;;;;;;;;783396;177;817604;-66
2024/02/01 02:42:37;;;;;;;48.53;28.90;;;;;;;;;;777699;177;919257;-68
2024/02/01 02:45:02;;;;;;;60.23;32.80;;;;;;;;;;783266;178;918947;-65
2024/02/01 02:47:28;;;;;;;49.40;30.45;;;;;;;;;;784611;178;1015046;-64
2024/02/01 02:49:54;;;;;;;55.27;26.73;;;;;;;;;;779297;177;914263;-64
2024/02/01 02:52:20;;;;;;;58.77;31.00;;;;;;;;;;778716;178;933056;-64
2024/02/01 02:54:46;;;;;;;60.30;34.08;;;;;;;;;;787087;177;918004;-66
2024/02/01 02:57:12;;;;;;;63.50;36.40;;;;;;;;;;777599;178;918575;-66
2024/02/01 02:59:38;;;;;;;62.55;36.65;;;;;;;;;;776726;177;918931;-67
2024/02/01 03:02:06;;;;;;;58.57;33.80;;;;;;;;;;784308;178;818201;-67
2024/02/01 03:04:30;;;;;;;67.28;34.70;;;;;;;;;;778205;178;918362;-64
2024/02/01 03:06:56;;;;;;;55.33;29.20;;;;;;;;;;784540;176;1014873;-66
2024/02/01 03:09:21;;;;;;;62.17;31.50;;;;;;;;;;778968;177;916261;-65
2024/02/01 03:11:47;;;;;;;56.27;34.40;;;;;;;;;;784312;177;900885;-66
2024/02/01 03:14:13;;;;;;;60.60;32.40;;;;;;;;;;779093;177;916578;-64
2024/02/01 03:16:39;;;;;;;59.27;35.50;;;;;;;;;;783023;176;917974;-65
2024/02/01 03:19:05;;;;;;;57.80;33.67;;;;;;;;;;783554;178;924773;-67
2024/02/01 03:21:31;;;;;;;62.67;34.08;;;;;;;;;;779376;177;904579;-66
2024/02/01 03:23:58;;;;;;;63.17;33.10;;;;;;;;;;777871;177;919531;-64
2024/02/01 03:26:22;;;;;;;65.63;37.23;;;;;;;;;;782969;178;920778;-64
2024/02/01 03:28:48;;;;;;;62.87;35.57;;;;;;;;;;783806;178;918491;-68
2024/02/01 03:31:14;;;;;;;57.30;34.95;;;;;;;;;;780482;178;1122460;-67
2024/02/01 03:33:40;;;;;;;61.10;34.63;;;;;;;;;;778513;178;816155;-66
2024/02/01 03:36:06;;;;;;;62.97;35.77;;;;;;;;;;779186;177;919160;-66
2024/02/01 03:38:32;;;;;;;62.70;35.03;;;;;;;;;;779748;177;917315;-68
2024/02/01 03:40:58;;;;;;;73.85;34.33;;;;;;;;;;779516;178;823003;-68
2024/02/01 03:43:24;;;;;;;60.07;31.97;;;;;;;;;;783727;178;916978;-67
2024/02/01 03:45:50;;;;;;;75.17;35.80;;;;;;;;;;779103;178;910850;-64
2024/02/01 03:48:16;;;;;;;56.33;31.87;;;;;;;;;;780504;176;914915;-65
2024/02/01 03:50:41;;;;;;;56.90;33.57;;;;;;;;;;781807;177;913095;-67
2024/02/01 03:53:10;;;;;;;69.07;40.07;;;;;;;;;;779493;177;921473;-65
2024/02/01 03:55:33;;;;;;;61.13;34.97;;;;;;;;;;777402;178;920745;-65
2024/02/01 03:57:59;;;;;;;55.17;31.80;;;;;;;;;;785243;176;708818;-67
2024/02/01 04:00:25;;;;;;;64.53;34.10;;;;;;;;;;782409;177;917327;-67
2024/02/01 04:02:53;;;;;;;59.10;35.00;;;;;;;;;;779225;177;811234;-64
2024/02/01 04:05:19;;;;;;;69.17;38.60;;;;;;;;;;778519;178;918835;-65
2024/02/01 04:07:45;;;;;;;77.77;41.17;;;;;;;;;;784825;178;814823;-66
2024/02/01 04:10:11;;;;;;;63.83;35.67;;;;;;;;;;779437;178;918649;-64
2024/02/01 04:12:37;;;;;;;53.87;33.00;;;;;;;;;;780080;178;918192;-66
2024/02/01 04:15:03;;;;;;;58.73;33.50;;;;;;;;;;786357;176;847154;-64
2024/02/01 04:17:28;;;;;;;58.40;36.07;;;;;;;;;;779751;175;924092;-66
2024/02/01 04:19:54;;;;;;;66.53;39.47;;;;;;;;;;780868;177;914802;-68
2024/02/01 04:22:21;;;;;;;53.60;33.63;;;;;;;;;;783471;177;910540;-66
2024/02/01 04:24:46;;;;;;;64.20;35.50;;;;;;;;;;785338;175;818111;-68
2024/02/01 04:27:12;;;;;;;51.17;28.23;;;;;;;;;;779591;178;919202;-66
2024/02/01 04:29:38;;;;;;;66.80;37.50;;;;;;;;;;778204;178;916013;-64
2024/02/01 04:32:04;;;;;;;53.20;30.33;;;;;;;;;;784986;177;918107;-68
2024/02/01 04:34:30;;;;;;;59.13;37.13;;;;;;;;;;782907;176;822471;-66
2024/02/01 04:36:56;;;;;;;60.10;31.60;;;;;;;;;;779268;178;918020;-69
2024/02/01 04:39:21;;;;;;;65.87;35.83;;;;;;;;;;782340;178;916934;-66
2024/02/01 04:41:53;;;;;;;53.90;34.47;;;;;;;;;;783442;177;912149;-67
2024/02/01 04:44:13;;;;;;;63.93;35.20;;;;;;;;;;779467;178;811069;-66
2024/02/01 04:46:39;;;;;;;64.40;37.90;;;;;;;;;;784661;177;1021653;-64
2024/02/01 04:49:11;;;;;;;61.33;33.90;;;;;;;;;;784848;175;918685;-67
2024/02/01 04:51:31;;;;;;;61.80;35.50;;;;;;;;;;779680;178;868087;-67
2024/02/01 04:53:57;;;;;;;59.23;35.23;;;;;;;;;;783456;178;619916;-65
2024/02/01 04:56:22;;;;;;;58.03;34.87;;;;;;;;;;794189;176;637497;-67
2024/02/01 04:58:48;;;;;;;64.30;37.53;;;;;;;;;;779795;176;921341;-65
2024/02/01 05:01:14;;;;;;;59.37;36.67;;;;;;;;;;781793;178;652847;-65
2024/02/01 05:03:40;;;;;;;65.70;36.70;;;;;;;;;;787945;178;637220;-68
2024/02/01 05:06:07;;;;;;;58.00;35.00;;;;;;;;;;782188;177;630916;-66
2024/02/01 05:08:32;;;;;;;60.50;33.27;;;;;;;;;;782946;177;632993;-65
2024/02/01 05:10:58;;;;;;;53.83;32.27;;;;;;;;;;784457;177;918230;-66
2024/02/01 05:13:23;;;;;;;61.33;33.53;;;;;;;;;;782590;178;739460;-65
2024/02/01 05:15:49;;;;;;;70.47;33.77;;;;;;;;;;786635;178;629092;-68
2024/02/01 05:18:16;;;;;;;62.28;33.65;;;;;;;;;;784739;177;642698;-65
2024/02/01 05:20:42;;;;;;;67.97;34.27;;;;;;;;;;792772;177;616886;-67
2024/02/01 05:23:08;;;;;;;55.03;33.90;;;;;;;;;;782161;176;798401;-65
2024/02/01 05:25:34;;;;;;;53.60;32.37;;;;;;;;;;780716;178;913203;-68
2024/02/01 05:28:00;;;;;;;55.10;35.67;;;;;;;;;;787117;178;629755;-64
2024/02/01 05:30:26;;;;;;;62.23;37.73;;;;;;;;;;782592;177;821299;-68
2024/02/01 05:32:52;;;;;;;62.63;37.03;;;;;;;;;;784018;177;628620;-68
2024/02/01 05:35:26;;;;;;;56.10;34.67;;;;;;;;;;786878;177;625882;-65
2024/02/01 05:37:49;;;;;;;55.07;34.07;;;;;;;;;;786204;178;623961;-66
2024/02/01 05:40:16;;;;;;;55.83;33.50;;;;;;;;;;784266;178;628984;-68
2024/02/01 05:42:40;;;;;;;59.87;36.17;;;;;;;;;;778658;177;918651;-67
2024/02/01 05:45:08;;;;;;;58.90;34.23;;;;;;;;;;786967;177;628860;-65
2024/02/01 05:47:32;;;;;;;58.70;34.20;;;;;;;;;;783348;177;628503;-65
2024/02/01 05:49:58;;;;;;;58.50;34.40;;;;;;;;;;785141;174;625654;-65
2024/02/01 05:52:24;;;;;;;63.10;34.13;;;;;;;;;;785501;177;646926;-65
2024/02/01 05:54:50;;;;;;;58.90;35.87;;;;;;;;;;781322;178;635123;-65
2024/02/01 05:57:16;;;;;;;59.30;34.47;;;;;;;;;;783211;177;632173;-66
2024/02/01 05:59:42;;;;;;;57.07;33.73;;;;;;;;;;786261;178;614148;-64
2024/02/01 06:02:08;;;;;;;61.33;32.83;;;;;;;;;;778216;178;919346;-65
2024/02/01 06:04:34;;;;;;;59.93;35.30;;;;;;;;;;780707;178;897402;-67
2024/02/01 06:06:59;;;;;;;57.50;36.10;;;;;;;;;;782188;177;926183;-64
2024/02/01 06:09:25;;;;;;;53.73;33.37;;;;;;;;;;784705;178;911793;-67
2024/02/01 06:11:51;;;;;;;61.58;34.40;;;;;;;;;;780016;177;1119493;-68
2024/02/01 06:14:17;;;;;;;58.30;34.27;;;;;;;;;;778954;177;918283;-65
2024/02/01 06:16:43;;;;;;;58.20;33.20;;;;;;;;;;785647;178;919543;-64
2024/02/01 06:19:09;;;;;;;59.00;32.23;;;;;;;;;;780651;177;918441;-67
2024/02/01 06:21:35;;;;;;;54.13;32.10;;;;;;;;;;778272;178;918301;-65
2024/02/01 06:24:00;;;;;;;58.37;33.30;;;;;;;;;;783124;178;918921;-67
2024/02/01 06:26:27;;;;;;;54.93;31.97;;;;;;;;;;778257;178;817808;-63
2024/02/01 06:28:56;;;;;;;52.53;31.10;;;;;;;;;;779578;177;816748;-64
2024/02/01 06:31:23;;;;;;;51.50;31.70;;;;;;;;;;776030;178;916649;-68
2024/02/01 06:33:50;;;;;;;63.57;34.10;;;;;;;;;;784030;177;822268;-68
2024/02/01 06:36:14;;;;;;;50.37;27.27;;;;;;;;;;778188;178;919332;-64
2024/02/01 06:44:08;;;;;;;51.50;30.73;;;;;;;;;;787860;176;920468;-68
2024/02/01 06:46:18;;;;;;;48.70;27.17;;;;;;;;;;782098;177;915901;-69
2024/02/01 06:48:43;;;;;;;50.65;28.95;;;;;;;;;;774292;179;919255;-67
2024/02/01 06:51:20;;;;;;;50.40;26.47;;;;;;;;;;784213;178;919693;-65
2024/02/01 06:53:35;;;;;;;57.10;31.30;;;;;;;;;;780381;177;919488;-68
2024/02/01 06:56:06;;;;;;;53.30;31.00;;;;;;;;;;780208;178;817423;-65
2024/02/01 07:01:13;;;;;;;46.60;29.53;;;;;;;;;;783601;177;816183;-67
2024/02/01 07:06:25;;;;;;;49.90;29.70;;;;;;;;;;780364;178;918884;-66
2024/02/01 07:08:52;;;;;;;50.07;28.40;;;;;;;;;;776122;179;917563;-67
2024/02/01 07:11:24;;;;;;;49.97;28.10;;;;;;;;;;782285;178;826272;-65
2024/02/01 07:16:21;;;;;;;43.63;28.30;;;;;;;;;;782758;177;938019;-67
2024/02/01 07:18:43;;;;;;;55.10;32.27;;;;;;;;;;775979;178;920203;-67
2024/02/01 07:21:19;;;;;;;52.55;31.37;;;;;;;;;;775276;178;916835;-66
2024/02/01 07:23:34;;;;;;;50.90;31.80;;;;;;;;;;779342;178;921717;-69
2024/02/01 07:26:02;;;;;;;50.60;30.60;;;;;;;;;;779589;178;817075;-68
2024/02/01 07:58:52;;;;;;;53.30;32.78;;;;;;;;;;783994;177;913052;-66
2024/02/01 08:01:14;;;;;;;50.33;30.03;;;;;;;;;;790862;176;920720;-69
2024/02/01 08:04:17;;;;;;;53.47;32.03;;;;;;;;;;777201;177;929521;-65
2024/02/01 08:08:56;;;;;;;53.90;30.90;;;;;;;;;;782104;178;918239;-69
2024/02/01 08:11:22;;;;;;;55.17;30.43;;;;;;;;;;785251;178;918646;-66
2024/02/01 08:13:49;;;;;;;56.80;30.87;;;;;;;;;;780404;177;919348;-65
2024/02/01 08:16:17;;;;;;;62.00;34.10;;;;;;;;;;777451;177;919344;-70
2024/02/01 08:18:42;;;;;;;57.47;31.57;;;;;;;;;;777511;178;1020525;-68
2024/02/01 08:21:14;;;;;;;53.90;33.60;;;;;;;;;;782955;178;919917;-70
2024/02/01 08:23:34;;;;;;;49.20;31.47;;;;;;;;;;777798;178;918835;-65
2024/02/01 08:26:02;;;;;;;52.03;30.93;;;;;;;;;;777391;178;918874;-68
2024/02/01 08:28:32;;;;;;;52.23;29.77;;;;;;;;;;781034;177;931859;-68
2024/02/01 08:31:02;;;;;;;43.70;29.10;;;;;;;;;;781284;178;917927;-68
2024/02/01 08:33:19;;;;;;;52.60;27.83;;;;;;;;;;773620;178;919083;-65
2024/02/01 08:35:43;;;;;;;49.57;30.27;;;;;;;;;;782818;178;892927;-68
2024/02/01 08:38:09;;;;;;;47.47;30.13;;;;;;;;;;779398;177;917467;-65
2024/02/01 08:40:40;;;;;;;54.43;31.70;;;;;;;;;;780122;178;920753;-68
2024/02/01 08:43:01;;;;;;;44.60;28.97;;;;;;;;;;778396;178;918202;-68
2024/02/01 08:45:27;;;;;;;48.80;29.95;;;;;;;;;;786167;177;796072;-65
2024/02/01 08:47:53;;;;;;;54.90;28.73;;;;;;;;;;777013;177;917802;-65
2024/02/01 08:50:19;;;;;;;59.07;31.03;;;;;;;;;;778724;178;912683;-68
2024/02/01 08:52:45;;;;;;;54.13;30.37;;;;;;;;;;782763;177;917544;-68
2024/02/01 08:55:13;;;;;;;53.70;31.77;;;;;;;;;;778305;177;815480;-68
2024/02/01 08:57:38;;;;;;;55.03;30.77;;;;;;;;;;776685;177;903001;-69
2024/02/01 09:00:21;;;;;;;48.27;28.10;;;;;;;;;;784545;177;918397;-70
2024/02/01 09:02:31;;;;;;;51.57;29.03;;;;;;;;;;780392;177;919061;-70
2024/02/01 09:04:56;;;;;;;53.03;31.80;;;;;;;;;;779786;176;920035;-66
2024/02/01 09:07:22;;;;;;;55.60;28.93;;;;;;;;;;781373;177;922878;-67
2024/02/01 09:09:47;;;;;;;53.00;29.47;;;;;;;;;;789299;176;924826;-68
2024/02/01 09:12:16;;;;;;;48.67;28.97;;;;;;;;;;781691;177;817172;-68
2024/02/01 09:14:39;;;;;;;57.23;31.70;;;;;;;;;;779672;178;918194;-68
2024/02/01 09:17:05;;;;;;;52.97;31.20;;;;;;;;;;784162;178;712623;-65
2024/02/01 09:19:31;;;;;;;55.13;32.17;;;;;;;;;;782753;177;816306;-69
2024/02/01 09:21:57;;;;;;;48.95;31.08;;;;;;;;;;782631;178;914643;-69
2024/02/01 09:24:23;;;;;;;49.30;29.63;;;;;;;;;;782871;177;918017;-64
2024/02/01 09:26:48;;;;;;;54.10;31.70;;;;;;;;;;781479;177;889171;-67
2024/02/01 09:29:14;;;;;;;49.33;30.20;;;;;;;;;;784181;175;920211;-68
2024/02/01 09:31:40;;;;;;;49.57;30.13;;;;;;;;;;780248;178;919190;-64
2024/02/01 09:34:08;;;;;;;46.13;29.00;;;;;;;;;;788829;174;918748;-66
2024/02/01 09:36:33;;;;;;;46.23;31.37;;;;;;;;;;780597;178;919429;-66
2024/02/01 09:38:58;;;;;;;52.40;33.13;;;;;;;;;;778521;178;921079;-67
2024/02/01 09:41:25;;;;;;;56.30;31.93;;;;;;;;;;785806;177;818536;-64
2024/02/01 09:43:49;;;;;;;54.07;32.40;;;;;;;;;;778989;177;919048;-64
2024/02/01 09:46:18;;;;;;;58.07;32.80;;;;;;;;;;778217;178;1022220;-65
2024/02/01 09:48:44;;;;;;;54.30;30.70;;;;;;;;;;787118;174;842023;-64
2024/02/01 09:51:17;;;;;;;53.03;32.33;;;;;;;;;;777837;177;917659;-64
2024/02/01 09:53:36;;;;;;;52.65;32.97;;;;;;;;;;775852;178;939328;-68
2024/02/01 09:56:04;;;;;;;57.77;34.50;;;;;;;;;;777719;178;915145;-67
2024/02/01 09:58:28;;;;;;;53.20;34.00;;;;;;;;;;785721;175;814114;-64
2024/02/01 10:00:53;;;;;;;66.73;34.93;;;;;;;;;;784794;176;917145;-64
2024/02/01 10:03:27;;;;;;;56.57;35.73;;;;;;;;;;781290;177;818028;-65
2024/02/01 10:05:54;;;;;;;57.73;33.50;;;;;;;;;;786018;178;811756;-65
2024/02/01 10:08:19;;;;;;;57.17;32.57;;;;;;;;;;784145;177;801326;-69
2024/02/01 10:10:45;;;;;;;63.80;34.13;;;;;;;;;;776443;178;920022;-66
2024/02/01 10:13:14;;;;;;;61.13;35.03;;;;;;;;;;777958;178;921458;-65
2024/02/01 10:15:43;;;;;;;53.80;33.87;;;;;;;;;;781304;176;815451;-68
2024/02/01 10:18:07;;;;;;;60.00;35.80;;;;;;;;;;788383;175;918868;-66
2024/02/01 10:20:35;;;;;;;62.03;36.15;;;;;;;;;;780006;177;915268;-65
2024/02/01 10:23:00;;;;;;;53.60;34.40;;;;;;;;;;784657;177;825739;-67
2024/02/01 10:25:33;;;;;;;62.57;34.57;;;;;;;;;;776352;178;919534;-66
2024/02/01 10:27:54;;;;;;;59.00;35.13;;;;;;;;;;776958;178;918530;-66
2024/02/01 10:30:19;;;;;;;58.43;35.07;;;;;;;;;;780468;177;920912;-66
2024/02/01 10:32:45;;;;;;;65.50;35.63;;;;;;;;;;786994;176;817868;-68
2024/02/01 10:35:14;;;;;;;59.03;36.27;;;;;;;;;;779241;177;919038;-69
2024/02/01 10:37:38;;;;;;;65.70;38.57;;;;;;;;;;779498;178;918409;-67
2024/02/01 10:40:06;;;;;;;62.23;34.97;;;;;;;;;;784178;177;919133;-69
2024/02/01 10:42:30;;;;;;;57.03;36.03;;;;;;;;;;785228;177;816483;-66
2024/02/01 10:44:56;;;;;;;59.03;35.47;;;;;;;;;;781126;178;824001;-64
2024/02/01 10:47:21;;;;;;;61.03;35.27;;;;;;;;;;783208;179;789404;-67
2024/02/01 10:49:52;;;;;;;55.87;33.83;;;;;;;;;;779289;178;918596;-67
2024/02/01 10:52:15;;;;;;;57.40;34.97;;;;;;;;;;780996;177;878659;-64
2024/02/01 10:54:42;;;;;;;61.07;36.00;;;;;;;;;;779811;177;919448;-66
2024/02/01 10:57:07;;;;;;;54.93;33.53;;;;;;;;;;777691;179;919351;-65
2024/02/01 10:59:33;;;;;;;60.10;35.40;;;;;;;;;;779206;178;927042;-64
2024/02/01 11:01:58;;;;;;;55.10;34.43;;;;;;;;;;776521;179;918847;-67
2024/02/01 11:04:26;;;;;;;65.00;34.43;;;;;;;;;;784033;177;918620;-65
2024/02/01 11:06:50;;;;;;;61.27;35.13;;;;;;;;;;782596;177;917679;-65
2024/02/01 11:09:18;;;;;;;57.43;33.83;;;;;;;;;;779932;178;917594;-65
2024/02/01 11:11:44;;;;;;;52.53;32.90;;;;;;;;;;779782;179;948220;-67
2024/02/01 11:14:10;;;;;;;55.90;35.10;;;;;;;;;;779922;177;918125;-65
2024/02/01 11:16:35;;;;;;;56.90;34.43;;;;;;;;;;785257;175;816484;-65
2024/02/01 11:19:01;;;;;;;62.63;36.00;;;;;;;;;;787552;175;917865;-65
2024/02/01 11:21:28;;;;;;;62.43;34.17;;;;;;;;;;786235;177;919561;-68
2024/02/01 11:23:53;;;;;;;62.67;36.17;;;;;;;;;;776330;178;918662;-68
2024/02/01 11:26:19;;;;;;;72.03;37.83;;;;;;;;;;779967;178;902601;-68
2024/02/01 11:28:47;;;;;;;65.30;38.40;;;;;;;;;;787953;177;940216;-65
2024/02/01 11:31:15;;;;;;;53.70;33.03;;;;;;;;;;780230;177;918428;-66
2024/02/01 11:33:37;;;;;;;55.70;33.60;;;;;;;;;;779745;177;816090;-65
2024/02/01 11:36:03;;;;;;;54.37;32.10;;;;;;;;;;783916;177;919131;-66
2024/02/01 11:38:29;;;;;;;60.53;32.53;;;;;;;;;;781741;175;920181;-66
2024/02/01 11:40:54;;;;;;;57.40;34.70;;;;;;;;;;784597;175;912750;-66
2024/02/01 11:43:20;;;;;;;58.22;33.97;;;;;;;;;;785423;178;818035;-66
2024/02/01 11:45:53;;;;;;;59.20;33.40;;;;;;;;;;780087;178;920664;-65
2024/02/01 11:48:16;;;;;;;49.53;32.50;;;;;;;;;;778598;177;867293;-67
2024/02/01 11:50:38;;;;;;;57.93;34.33;;;;;;;;;;779138;177;918557;-66
2024/02/01 11:53:09;;;;;;;60.00;34.67;;;;;;;;;;784435;178;922584;-67
2024/02/01 11:55:33;;;;;;;53.27;31.67;;;;;;;;;;780204;178;849623;-68
2024/02/01 11:57:59;;;;;;;45.33;31.43;;;;;;;;;;780233;178;919064;-66
2024/02/01 12:00:24;;;;;;;48.33;31.00;;;;;;;;;;782168;177;918515;-67
2024/02/01 12:02:49;;;;;;;52.93;34.07;;;;;;;;;;779091;178;918798;-65
2024/02/01 12:05:17;;;;;;;53.17;31.33;;;;;;;;;;778186;177;918361;-66
2024/02/01 12:07:44;;;;;;;56.08;33.35;;;;;;;;;;785021;177;1003858;-65
2024/02/01 12:10:12;;;;;;;48.73;28.93;;;;;;;;;;788844;177;959961;-67
2024/02/01 12:12:38;;;;;;;45.53;27.30;;;;;;;;;;777500;178;920432;-65
2024/02/01 12:15:04;;;;;;;52.20;29.42;;;;;;;;;;774687;178;1021546;-66
2024/02/01 12:17:29;;;;;;;50.83;29.13;;;;;;;;;;783227;177;815935;-65
2024/02/01 12:19:55;;;;;;;47.77;27.60;;;;;;;;;;778971;177;1020384;-67
2024/02/01 12:22:21;;;;;;;49.53;29.53;;;;;;;;;;778927;177;919287;-66
2024/02/01 12:24:47;;;;;;;53.07;30.03;;;;;;;;;;786211;177;919181;-66
2024/02/01 12:27:13;;;;;;;50.93;30.60;;;;;;;;;;780027;178;923913;-65
2024/02/01 12:29:38;;;;;;;44.30;27.13;;;;;;;;;;775882;178;918797;-67
2024/02/01 12:32:11;;;;;;;48.27;28.60;;;;;;;;;;777837;178;917448;-68
2024/02/01 12:34:32;;;;;;;43.47;27.63;;;;;;;;;;785610;175;916380;-65
2024/02/01 12:36:56;;;;;;;53.25;29.48;;;;;;;;;;784004;177;849602;-66
2024/02/01 12:39:22;;;;;;;53.17;31.53;;;;;;;;;;780564;177;918282;-67
2024/02/01 12:41:48;;;;;;;51.10;30.90;;;;;;;;;;790685;176;896071;-69
2024/02/01 12:44:13;;;;;;;51.17;29.17;;;;;;;;;;780594;177;918810;-66
2024/02/01 12:46:42;;;;;;;46.17;26.80;;;;;;;;;;777652;177;920010;-66
2024/02/01 12:49:05;;;;;;;56.47;30.80;;;;;;;;;;784780;177;818282;-65
2024/02/01 12:51:31;;;;;;;56.63;30.20;;;;;;;;;;781267;178;918280;-65
2024/02/01 12:53:57;;;;;;;51.50;29.40;;;;;;;;;;780482;177;919083;-65
2024/02/01 12:56:25;;;;;;;52.53;33.10;;;;;;;;;;782897;178;889187;-68
2024/02/01 12:58:49;;;;;;;50.07;31.13;;;;;;;;;;776606;177;940326;-66
2024/02/01 13:01:15;;;;;;;49.37;30.70;;;;;;;;;;777192;178;915903;-65
2024/02/01 13:03:41;;;;;;;45.43;29.90;;;;;;;;;;778142;178;919508;-67
2024/02/01 13:06:07;;;;;;;53.17;30.20;;;;;;;;;;785226;178;826059;-68
2024/02/01 13:08:39;;;;;;;50.00;29.97;;;;;;;;;;780872;177;922986;-67
2024/02/01 13:11:02;;;;;;;51.37;31.33;;;;;;;;;;779841;177;919294;-66
2024/02/01 13:13:25;;;;;;;49.93;27.70;;;;;;;;;;792322;175;911893;-67
2024/02/01 13:15:51;;;;;;;41.77;26.57;;;;;;;;;;780135;178;922178;-67
2024/02/01 13:18:17;;;;;;;48.85;27.27;;;;;;;;;;778738;177;920193;-67
2024/02/01 13:20:42;;;;;;;44.77;27.03;;;;;;;;;;788926;177;874247;-67
2024/02/01 13:23:09;;;;;;;41.83;24.80;;;;;;;;;;779368;177;919401;-67
2024/02/01 13:25:35;;;;;;;41.77;26.50;;;;;;;;;;781044;177;919822;-66
2024/02/01 13:28:01;;;;;;;45.60;24.73;;;;;;;;;;777633;177;918945;-65
2024/02/01 13:30:27;;;;;;;49.03;26.02;;;;;;;;;;782783;178;919179;-68
2024/02/01 13:32:52;;;;;;;44.27;26.27;;;;;;;;;;780223;177;918599;-66
2024/02/01 13:35:18;;;;;;;47.70;27.40;;;;;;;;;;776681;178;919600;-67
2024/02/01 13:37:46;;;;;;;48.20;28.70;;;;;;;;;;784554;178;907330;-66
2024/02/01 13:40:14;;;;;;;41.37;25.97;;;;;;;;;;778872;177;917314;-66
2024/02/01 13:42:36;;;;;;;45.37;25.70;;;;;;;;;;777189;177;919805;-68
2024/02/01 13:45:01;;;;;;;46.80;26.77;;;;;;;;;;782511;178;919541;-66
2024/02/01 13:47:27;;;;;;;45.90;28.50;;;;;;;;;;777933;178;923532;-67
2024/02/01 13:49:53;;;;;;;46.13;28.10;;;;;;;;;;782185;177;812831;-67
2024/02/01 13:52:20;;;;;;;58.17;29.20;;;;;;;;;;786308;177;918457;-67
2024/02/01 13:54:46;;;;;;;41.27;25.07;;;;;;;;;;783522;175;915966;-69
2024/02/01 13:57:12;;;;;;;45.40;25.10;;;;;;;;;;778563;177;939314;-66
2024/02/01 13:59:37;;;;;;;45.37;26.20;;;;;;;;;;777910;175;916673;-66
2024/02/01 14:02:03;;;;;;;45.00;27.17;;;;;;;;;;784712;178;1019575;-68
2024/02/01 14:04:29;;;;;;;43.77;25.80;;;;;;;;;;779548;175;924532;-65
2024/02/01 14:06:55;;;;;;;43.53;28.23;;;;;;;;;;778399;178;919160;-67
2024/02/01 14:09:22;;;;;;;48.07;29.00;;;;;;;;;;784029;178;816499;-67
2024/02/01 14:11:48;;;;;;;55.87;30.20;;;;;;;;;;782587;178;818745;-66
2024/02/01 14:14:14;;;;;;;46.00;28.23;;;;;;;;;;778807;177;894867;-65
2024/02/01 14:16:41;;;;;;;43.17;26.08;;;;;;;;;;786532;177;918627;-68
2024/02/01 14:19:08;;;;;;;47.20;29.60;;;;;;;;;;779966;179;624063;-68
2024/02/01 14:21:36;;;;;;;49.53;31.13;;;;;;;;;;784793;175;832345;-67
2024/02/01 14:24:01;;;;;;;51.63;29.10;;;;;;;;;;776013;179;817231;-68
2024/02/01 14:26:27;;;;;;;62.00;30.62;;;;;;;;;;783995;178;885244;-67
2024/02/01 14:28:54;;;;;;;42.07;26.73;;;;;;;;;;781098;177;919054;-65
2024/02/01 14:31:19;;;;;;;45.13;28.23;;;;;;;;;;779024;177;917681;-66
2024/02/01 14:33:45;;;;;;;50.93;28.17;;;;;;;;;;782684;176;919057;-66
2024/02/01 14:36:10;;;;;;;46.42;28.02;;;;;;;;;;778584;178;920068;-66
2024/02/01 14:38:37;;;;;;;54.17;29.20;;;;;;;;;;784180;178;920550;-66
2024/02/01 14:41:02;;;;;;;43.43;24.90;;;;;;;;;;779482;177;919592;-66
2024/02/01 14:43:28;;;;;;;45.70;26.20;;;;;;;;;;785504;175;817949;-66